createdAt,value
2019-04-26T00:01:50.239Z,101363.38
2019-04-26T00:04:23.697Z,101360.75
2019-04-26T00:06:53.549Z,101353.27
2019-04-26T00:09:27.507Z,101357.69
2019-04-26T00:12:19.069Z,101349.77
2019-04-26T00:15:12.074Z,101345.36
2019-04-26T00:17:48.174Z,101345.83
2019-04-26T00:20:19.031Z,101344.12
2019-04-26T00:22:49.154Z,101335.73
2019-04-26T00:25:18.720Z,101341.49
2019-04-26T00:27:48.877Z,101338.84
2019-04-26T00:30:19.151Z,101344.60
2019-04-26T00:32:48.985Z,101349.91
2019-04-26T00:35:18.428Z,101349.08
2019-04-26T00:37:59.780Z,101348.69
2019-04-26T00:40:29.555Z,101347.41
2019-04-26T00:43:00.775Z,101348.27
2019-04-26T00:45:33.424Z,101342.95
2019-04-26T00:48:04.949Z,101335.37
2019-04-26T00:50:36.029Z,101329.65
2019-04-26T00:53:06.567Z,101328.39
2019-04-26T00:55:37.476Z,101321.97
2019-04-26T00:58:09.909Z,101320.34
2019-04-26T01:00:39.383Z,101325.69
2019-04-26T01:03:08.958Z,101332.72
2019-04-26T01:05:42.454Z,101339.80
2019-04-26T01:08:12.334Z,101336.29
2019-04-26T01:10:42.445Z,101325.69
2019-04-26T01:13:12.004Z,101322.20
2019-04-26T01:15:45.351Z,101331.47
2019-04-26T01:18:16.906Z,101337.61
2019-04-26T01:20:50.874Z,101336.33
2019-04-26T01:23:23.605Z,101342.07
2019-04-26T01:26:13.768Z,101347.80
2019-04-26T01:28:53.871Z,101349.59
2019-04-26T01:31:24.414Z,101350.48
2019-04-26T01:33:54.394Z,101357.52
2019-04-26T01:36:26.493Z,101355.27
2019-04-26T01:38:59.470Z,101357.47
2019-04-26T01:41:38.417Z,101352.62
2019-04-26T01:44:14.498Z,101358.75
2019-04-26T01:46:47.456Z,101358.29
2019-04-26T01:49:20.871Z,101352.52
2019-04-26T01:52:04.847Z,101356.89
2019-04-26T01:54:40.252Z,101351.20
2019-04-26T01:57:10.110Z,101359.23
2019-04-26T01:59:43.073Z,101348.68
2019-04-26T02:02:27.789Z,101353.11
2019-04-26T02:05:01.206Z,101347.84
2019-04-26T02:07:41.746Z,101353.18
2019-04-26T02:10:13.262Z,101349.20
2019-04-26T02:12:47.582Z,101347.91
2019-04-26T02:15:20.445Z,101347.92
2019-04-26T02:17:52.142Z,101343.49
2019-04-26T02:21:19.637Z,101344.40
2019-04-26T02:24:09.358Z,101351.47
2019-04-26T02:26:42.151Z,101355.00
2019-04-26T02:29:16.851Z,101355.90
2019-04-26T02:31:52.857Z,101351.89
2019-04-26T02:34:23.007Z,101354.11
2019-04-26T02:36:58.455Z,101354.11
2019-04-26T02:39:32.076Z,101360.23
2019-04-26T02:42:05.589Z,101353.18
2019-04-26T02:44:48.635Z,101361.06
2019-04-26T02:47:50.746Z,101350.50
2019-04-26T02:50:28.302Z,101353.12
2019-04-26T02:53:23.489Z,101345.17
2019-04-26T02:56:30.306Z,101340.75
2019-04-26T02:59:41.779Z,101336.38
2019-04-26T03:02:37.289Z,101330.25
2019-04-26T03:05:09.970Z,101333.77
2019-04-26T03:08:21.028Z,101325.44
2019-04-26T03:11:11.114Z,101321.48
2019-04-26T03:14:02.870Z,101324.19
2019-04-26T03:16:54.387Z,101327.72
2019-04-26T03:19:38.166Z,101333.45
2019-04-26T03:22:58.341Z,101330.41
2019-04-26T03:25:44.974Z,101326.47
2019-04-26T03:29:14.065Z,101318.55
2019-04-26T03:32:22.564Z,101319.44
2019-04-26T03:35:18.221Z,101319.88
2019-04-26T03:38:16.705Z,101318.99
2019-04-26T03:41:05.845Z,101321.63
2019-04-26T03:43:50.607Z,101334.38
2019-04-26T03:46:43.077Z,101339.19
2019-04-26T03:50:12.124Z,101332.98
2019-04-26T03:53:08.203Z,101331.25
2019-04-26T03:56:24.929Z,101333.91
2019-04-26T03:59:06.749Z,101331.20
2019-04-26T04:01:46.282Z,101331.24
2019-04-26T04:04:37.082Z,101336.52
2019-04-26T04:07:10.441Z,101335.63
2019-04-26T04:09:51.158Z,101341.31
2019-04-26T04:12:37.816Z,101349.70
2019-04-26T04:15:17.393Z,101351.97
2019-04-26T04:17:55.398Z,101353.28
2019-04-26T04:21:03.762Z,101358.57
2019-04-26T04:23:53.731Z,101360.36
2019-04-26T04:26:39.095Z,101363.92
2019-04-26T04:29:50.503Z,101358.63
2019-04-26T04:32:28.101Z,101358.63
2019-04-26T04:35:01.098Z,101357.31
2019-04-26T04:37:33.936Z,101348.93
2019-04-26T04:40:22.972Z,101346.75
2019-04-26T04:43:29.573Z,101350.74
2019-04-26T04:46:42.033Z,101347.68
2019-04-26T04:49:31.670Z,101345.47
2019-04-26T04:52:38.905Z,101345.95
2019-04-26T04:55:15.240Z,101338.44
2019-04-26T04:58:10.362Z,101340.61
2019-04-26T05:01:32.019Z,101335.78
2019-04-26T05:04:10.968Z,101332.68
2019-04-26T05:07:25.653Z,101330.93
2019-04-26T05:10:10.874Z,101320.33
2019-04-26T05:13:10.456Z,101313.70
2019-04-26T05:16:16.905Z,101318.15
2019-04-26T05:19:36.151Z,101315.91
2019-04-26T05:22:40.822Z,101320.33
2019-04-26T05:25:56.902Z,101322.05
2019-04-26T05:28:38.147Z,101312.74
2019-04-26T05:31:36.996Z,101307.42
2019-04-26T05:34:47.944Z,101302.13
2019-04-26T05:37:39.703Z,101306.48
2019-04-26T05:40:45.525Z,101298.55
2019-04-26T05:43:45.128Z,101290.58
2019-04-26T05:47:14.274Z,101292.75
2019-04-26T05:50:19.967Z,101293.64
2019-04-26T05:53:34.165Z,101285.25
2019-04-26T05:56:43.645Z,101283.44
2019-04-26T05:59:25.118Z,101283.42
2019-04-26T06:02:34.291Z,101282.44
2019-04-26T06:05:40.865Z,101277.06
2019-04-26T06:08:51.200Z,101275.67
2019-04-26T06:11:33.551Z,101275.59
2019-04-26T06:14:56.807Z,101276.77
2019-04-26T06:18:15.223Z,101272.29
2019-04-26T06:20:57.714Z,101270.47
2019-04-26T06:23:58.061Z,101268.64
2019-04-26T06:27:14.364Z,101278.73
2019-04-26T06:30:07.928Z,101275.53
2019-04-26T06:33:00.383Z,101277.27
2019-04-26T06:35:27.486Z,101275.34
2019-04-26T06:38:55.967Z,101270.36
2019-04-26T06:42:01.418Z,101266.33
2019-04-26T06:44:40.054Z,101265.30
2019-04-26T06:47:24.581Z,101268.67
2019-04-26T06:50:15.042Z,101259.73
2019-04-26T06:52:52.923Z,101264.03
2019-04-26T06:55:35.883Z,101258.70
2019-04-26T06:58:37.478Z,101245.03
2019-04-26T07:01:28.314Z,101247.25
2019-04-26T07:04:59.145Z,101244.63
2019-04-26T07:08:05.160Z,101238.77
2019-04-26T07:11:02.731Z,101242.72
2019-04-26T07:14:12.496Z,101241.39
2019-04-26T07:16:53.104Z,101229.34
2019-04-26T07:20:08.870Z,101225.77
2019-04-26T07:23:44.507Z,101225.67
2019-04-26T07:27:08.963Z,101224.54
2019-04-26T07:30:01.900Z,101214.59
2019-04-26T07:33:13.141Z,101224.15
2019-04-26T07:35:59.358Z,101218.70
2019-04-26T07:39:33.755Z,101215.38
2019-04-26T07:42:55.776Z,101214.73
2019-04-26T07:45:53.525Z,101211.78
2019-04-26T07:49:04.189Z,101201.86
2019-04-26T07:52:15.841Z,101193.11
2019-04-26T07:55:32.400Z,101190.50
2019-04-26T07:58:38.107Z,101186.80
2019-04-26T08:01:50.476Z,101183.42
2019-04-26T08:04:29.597Z,101174.69
2019-04-26T08:07:11.924Z,101169.67
2019-04-26T08:09:59.202Z,101170.22
2019-04-26T08:12:21.158Z,101169.56
2019-04-26T08:15:19.101Z,101157.11
2019-04-26T08:18:06.657Z,101157.32
2019-04-26T08:21:02.404Z,101151.41
2019-04-26T08:23:42.028Z,101149.62
2019-04-26T08:26:15.522Z,101155.97
2019-04-26T08:28:48.162Z,101160.94
2019-04-26T08:31:24.322Z,101153.63
2019-04-26T08:34:02.096Z,101153.54
2019-04-26T08:36:37.297Z,101144.80
2019-04-26T08:39:15.929Z,101146.26
2019-04-26T08:41:48.625Z,101133.64
2019-04-26T08:44:30.170Z,101137.35
2019-04-26T08:47:14.241Z,101135.33
2019-04-26T08:50:00.134Z,101137.30
2019-04-26T08:52:34.051Z,101131.43
2019-04-26T08:55:07.649Z,101125.00
2019-04-26T08:57:39.715Z,101120.12
2019-04-26T09:00:27.193Z,101122.94
2019-04-26T09:03:12.193Z,101109.75
2019-04-26T09:05:59.504Z,101117.95
2019-04-26T09:08:33.479Z,101108.74
2019-04-26T09:11:05.860Z,101105.45
2019-04-26T09:13:39.468Z,101106.70
2019-04-26T09:16:18.599Z,101106.25
2019-04-26T09:18:54.329Z,101104.37
2019-04-26T09:21:42.354Z,101095.83
2019-04-26T09:24:24.948Z,101088.06
2019-04-26T09:27:01.769Z,101090.20
2019-04-26T09:29:48.962Z,101085.50
2019-04-26T09:32:28.013Z,101079.54
2019-04-26T09:34:56.608Z,101080.02
2019-04-26T09:37:26.215Z,101075.20
2019-04-26T09:40:09.400Z,101069.94
2019-04-26T09:42:43.911Z,100978.11
2019-04-26T09:45:35.936Z,101071.66
2019-04-26T09:48:11.478Z,101070.27
2019-04-26T09:50:44.157Z,101075.61
2019-04-26T09:53:13.718Z,101071.30
2019-04-26T09:55:43.467Z,101062.23
2019-04-26T09:58:14.269Z,101062.76
2019-04-26T10:00:48.477Z,101065.31
2019-04-26T10:03:15.954Z,101058.36
2019-04-26T10:05:45.697Z,101051.39
2019-04-26T10:08:15.396Z,101057.28
2019-04-26T10:10:45.388Z,101051.25
2019-04-26T10:13:33.168Z,101048.98
2019-04-26T10:16:21.656Z,101037.70
2019-04-26T10:18:59.450Z,101035.62
2019-04-26T10:21:29.435Z,101037.84
2019-04-26T10:23:59.084Z,101027.36
2019-04-26T10:26:29.918Z,101035.54
2019-04-26T10:28:59.899Z,101033.97
2019-04-26T10:31:29.668Z,101033.19
2019-04-26T10:33:59.512Z,101029.33
2019-04-26T10:36:30.131Z,101022.39
2019-04-26T10:39:01.916Z,101019.08
2019-04-26T10:41:31.456Z,101019.30
2019-04-26T10:44:04.710Z,101016.44
2019-04-26T10:46:34.324Z,101020.84
2019-04-26T10:49:25.997Z,101016.52
2019-04-26T10:51:55.593Z,101016.37
2019-04-26T10:54:25.225Z,101013.56
2019-04-26T10:57:01.260Z,101009.13
2019-04-26T10:59:39.895Z,101016.34
2019-04-26T11:02:11.649Z,101005.66
2019-04-26T11:04:42.845Z,101003.22
2019-04-26T11:07:14.874Z,101005.07
2019-04-26T11:09:44.778Z,100994.66
2019-04-26T11:12:17.155Z,100992.83
2019-04-26T11:14:48.191Z,100986.96
2019-04-26T11:17:18.050Z,100983.64
2019-04-26T11:19:47.777Z,100983.68
2019-04-26T11:22:28.586Z,100977.27
2019-04-26T11:24:50.112Z,100976.56
2019-04-26T11:27:23.350Z,100970.92
2019-04-26T11:29:53.783Z,100979.84
2019-04-26T11:32:23.670Z,100974.02
2019-04-26T11:34:54.592Z,100967.85
2019-04-26T11:37:24.920Z,100969.59
2019-04-26T11:39:55.644Z,100963.73
2019-04-26T11:42:27.551Z,100962.66
2019-04-26T11:45:05.950Z,100962.50
2019-04-26T11:47:28.480Z,100958.30
2019-04-26T11:49:58.385Z,100967.23
2019-04-26T11:52:28.062Z,100958.05
2019-04-26T11:54:57.745Z,100959.97
2019-04-26T11:57:27.436Z,100954.81
2019-04-26T11:59:57.222Z,100949.91
2019-04-26T12:02:27.117Z,100951.36
2019-04-26T12:05:14.229Z,100950.36
2019-04-26T12:07:53.487Z,100937.66
2019-04-26T12:10:23.174Z,100944.21
2019-04-26T12:13:05.145Z,100940.84
2019-04-26T12:15:30.296Z,100934.41
2019-04-26T12:17:58.782Z,100932.02
2019-04-26T12:20:28.483Z,100932.86
2019-04-26T12:22:58.222Z,100930.38
2019-04-26T12:25:30.929Z,100928.70
2019-04-26T12:28:01.841Z,100927.83
2019-04-26T12:30:31.109Z,100929.67
2019-04-26T12:33:01.186Z,100925.42
2019-04-26T12:35:30.773Z,100921.25
2019-04-26T12:38:03.389Z,100926.22
2019-04-26T12:40:35.573Z,100927.25
2019-04-26T12:43:08.061Z,100926.14
2019-04-26T12:45:54.356Z,100928.45
2019-04-26T12:48:24.520Z,100924.55
2019-04-26T12:50:54.598Z,100923.34
2019-04-26T12:53:26.844Z,100916.98
2019-04-26T12:55:58.350Z,100920.73
2019-04-26T12:58:32.156Z,100925.74
2019-04-26T13:01:02.172Z,100917.25
2019-04-26T13:03:31.894Z,100915.73
2019-04-26T13:06:01.849Z,100912.81
2019-04-26T13:08:31.450Z,100913.56
2019-04-26T13:11:17.011Z,100907.66
2019-04-26T13:14:12.528Z,100910.42
2019-04-26T13:16:51.020Z,100904.05
2019-04-26T13:19:21.047Z,100897.08
2019-04-26T13:21:50.742Z,100896.30
2019-04-26T13:24:20.672Z,100894.45
2019-04-26T13:26:50.502Z,100886.68
2019-04-26T13:29:21.309Z,100880.47
2019-04-26T13:31:50.835Z,100883.74
2019-04-26T13:34:20.739Z,100885.43
2019-04-26T13:36:50.502Z,100887.17
2019-04-26T13:39:22.545Z,100876.97
2019-04-26T13:42:02.108Z,100871.20
2019-04-26T13:44:41.157Z,100878.73
2019-04-26T13:47:28.142Z,100864.95
2019-04-26T13:50:16.696Z,100865.25
2019-04-26T13:52:46.702Z,100852.97
2019-04-26T13:55:16.346Z,100858.34
2019-04-26T13:57:46.219Z,100853.27
2019-04-26T14:00:22.638Z,100855.20
2019-04-26T14:02:52.361Z,100852.38
2019-04-26T14:05:22.750Z,100846.05
2019-04-26T14:07:52.519Z,100839.51
2019-04-26T14:10:23.423Z,100836.05
2019-04-26T14:12:53.004Z,100832.59
2019-04-26T14:15:22.597Z,100836.05
2019-04-26T14:17:52.133Z,100825.65
2019-04-26T14:20:23.380Z,100826.63
2019-04-26T14:23:05.830Z,100825.67
2019-04-26T14:25:50.652Z,100834.05
2019-04-26T14:28:20.479Z,100824.80
2019-04-26T14:30:52.406Z,100818.93
2019-04-26T14:33:22.125Z,100828.16
2019-04-26T14:35:52.180Z,100820.86
2019-04-26T14:38:28.076Z,100832.59
2019-04-26T14:41:03.727Z,100825.84
2019-04-26T14:43:24.810Z,100827.39
2019-04-26T14:45:56.171Z,100825.84
2019-04-26T14:48:35.779Z,100827.86
2019-04-26T14:51:07.470Z,100726.42
2019-04-26T14:53:32.176Z,100818.16
2019-04-26T14:56:00.345Z,100811.61
2019-04-26T14:58:30.610Z,100811.20
2019-04-26T15:01:03.262Z,100815.20
2019-04-26T15:03:46.323Z,100810.08
2019-04-26T15:06:27.956Z,100809.06
2019-04-26T15:08:57.682Z,100798.52
2019-04-26T15:11:32.186Z,100797.25
2019-04-26T15:14:03.215Z,100796.95
2019-04-26T15:16:32.952Z,100807.17
2019-04-26T15:19:02.730Z,100801.97
2019-04-26T15:21:34.397Z,100806.06
2019-04-26T15:24:05.050Z,100809.96
2019-04-26T15:26:36.518Z,100808.81
2019-04-26T15:29:05.952Z,100813.42
2019-04-26T15:31:35.899Z,100800.39
2019-04-26T15:34:05.740Z,100811.14
2019-04-26T15:36:36.628Z,100806.05
2019-04-26T15:39:19.860Z,100808.56
2019-04-26T15:42:03.888Z,100796.06
2019-04-26T15:45:04.465Z,100800.49
2019-04-26T15:47:52.427Z,100790.32
2019-04-26T15:50:27.094Z,100787.22
2019-04-26T15:52:56.853Z,100791.08
2019-04-26T15:55:26.722Z,100787.51
2019-04-26T15:57:56.339Z,100786.33
2019-04-26T16:00:28.377Z,100791.63
2019-04-26T16:03:03.047Z,100786.35
2019-04-26T16:05:31.283Z,100786.30
2019-04-26T16:08:04.465Z,100787.05
2019-04-26T16:10:34.743Z,100785.98
2019-04-26T16:13:18.223Z,100783.19
2019-04-26T16:15:37.536Z,100788.09
2019-04-26T16:18:10.543Z,100781.89
2019-04-26T16:20:42.875Z,100780.16
2019-04-26T16:23:13.409Z,100777.81
2019-04-26T16:25:44.743Z,100776.44
2019-04-26T16:28:54.107Z,100776.97
2019-04-26T16:31:37.132Z,100772.10
2019-04-26T16:34:10.816Z,100773.04
2019-04-26T16:36:45.026Z,100776.05
2019-04-26T16:39:13.266Z,100768.50
2019-04-26T16:41:45.495Z,100776.92
2019-04-26T16:44:19.174Z,100770.39
2019-04-26T16:46:53.929Z,100767.09
2019-04-26T16:49:19.798Z,100778.48
2019-04-26T16:51:54.486Z,100772.19
2019-04-26T16:54:22.835Z,100777.88
2019-04-26T16:56:52.884Z,100774.56
2019-04-26T16:59:26.590Z,100776.00
2019-04-26T17:01:53.988Z,100779.77
2019-04-26T17:04:29.077Z,100775.28
2019-04-26T17:06:55.129Z,100781.67
2019-04-26T17:09:29.640Z,100777.19
2019-04-26T17:11:56.538Z,100788.55
2019-04-26T17:14:26.370Z,100782.78
2019-04-26T17:16:55.979Z,100775.22
2019-04-26T17:19:25.637Z,100777.69
2019-04-26T17:22:43.682Z,100768.59
2019-04-26T17:25:24.344Z,100772.40
2019-04-26T17:27:53.472Z,100771.97
2019-04-26T17:30:25.118Z,100765.13
2019-04-26T17:32:55.805Z,100770.08
2019-04-26T17:35:25.718Z,100770.64
2019-04-26T17:37:57.375Z,100769.45
2019-04-26T17:40:30.268Z,100771.11
2019-04-26T17:42:58.415Z,100766.06
2019-04-26T17:45:28.176Z,100769.03
2019-04-26T17:47:58.174Z,100769.81
2019-04-26T17:50:27.749Z,100766.27
2019-04-26T17:52:57.497Z,100766.58
2019-04-26T17:55:27.215Z,100760.72
2019-04-26T17:58:11.479Z,100762.34
2019-04-26T18:00:30.085Z,100760.35
2019-04-26T18:03:01.488Z,100764.12
2019-04-26T18:05:42.009Z,100752.78
2019-04-26T18:08:30.415Z,100750.41
2019-04-26T18:10:41.393Z,100748.42
2019-04-26T18:13:11.261Z,100752.67
2019-04-26T18:15:39.974Z,100748.80
2019-04-26T18:18:42.937Z,100749.97
2019-04-26T18:21:49.705Z,100754.04
2019-04-26T18:24:17.996Z,100747.66
2019-04-26T18:26:52.243Z,100744.70
2019-04-26T18:29:25.206Z,100745.70
2019-04-26T18:31:53.585Z,100751.28
2019-04-26T18:34:23.324Z,100757.77
2019-04-26T18:36:52.867Z,100772.13
2019-04-26T18:39:26.311Z,100779.23
2019-04-26T18:41:54.149Z,100773.77
2019-04-26T18:44:35.812Z,100775.23
2019-04-26T18:47:14.740Z,100780.70
2019-04-26T18:49:44.465Z,100782.45
2019-04-26T18:52:14.192Z,100779.66
2019-04-26T18:55:16.284Z,100779.50
2019-04-26T18:57:53.962Z,100774.70
2019-04-26T19:00:28.814Z,100776.31
2019-04-26T19:02:59.867Z,100777.11
2019-04-26T19:05:30.051Z,100770.81
2019-04-26T19:07:59.645Z,100777.11
2019-04-26T19:10:31.604Z,100768.81
2019-04-26T19:13:07.432Z,100767.47
2019-04-26T19:15:55.984Z,100768.42
2019-04-26T19:18:54.120Z,100763.21
2019-04-26T19:21:27.903Z,100775.36
2019-04-26T19:24:05.878Z,100788.05
2019-04-26T19:26:34.867Z,100793.56
2019-04-26T19:29:09.910Z,100792.06
2019-04-26T19:31:34.255Z,100786.39
2019-04-26T19:34:03.832Z,100785.25
2019-04-26T19:36:33.692Z,100798.15
2019-04-26T19:39:03.630Z,100804.58
2019-04-26T19:41:34.793Z,100808.98
2019-04-26T19:44:04.635Z,100820.45
2019-04-26T19:46:44.344Z,100824.31
2019-04-26T19:49:36.786Z,100815.62
2019-04-26T19:52:19.251Z,100817.61
2019-04-26T19:55:16.778Z,100809.59
2019-04-26T19:58:05.246Z,100815.86
2019-04-26T20:00:38.534Z,100807.58
2019-04-26T20:03:08.477Z,100815.59
2019-04-26T20:05:40.577Z,100823.67
2019-04-26T20:08:09.350Z,100824.13
2019-04-26T20:10:40.690Z,100819.59
2019-04-26T20:13:15.042Z,100823.02
2019-04-26T20:15:42.502Z,100831.75
2019-04-26T20:18:12.381Z,100725.45
2019-04-26T20:20:41.933Z,100835.73
2019-04-26T20:23:12.361Z,100836.14
2019-04-26T20:25:42.110Z,100844.61
2019-04-26T20:28:12.202Z,100842.94
2019-04-26T20:31:08.924Z,100841.98
2019-04-26T20:33:38.773Z,100849.64
2019-04-26T20:36:08.454Z,100856.77
2019-04-26T20:38:43.791Z,100858.17
2019-04-26T20:41:13.162Z,100852.50
2019-04-26T20:43:52.327Z,100853.95
2019-04-26T20:46:16.085Z,100860.45
2019-04-26T20:48:45.693Z,100864.41
2019-04-26T20:51:17.997Z,100860.33
2019-04-26T20:53:46.536Z,100862.01
2019-04-26T20:56:18.616Z,100859.52
2019-04-26T20:58:47.690Z,100859.78
2019-04-26T21:01:17.496Z,100856.52
2019-04-26T21:03:47.130Z,100850.48
2019-04-26T21:06:16.673Z,100853.09
2019-04-26T21:08:46.233Z,100843.37
2019-04-26T21:11:15.866Z,100841.97
2019-04-26T21:13:45.397Z,100844.39
2019-04-26T21:16:15.724Z,100848.88
2019-04-26T21:18:45.433Z,100847.48
2019-04-26T21:21:16.231Z,100852.92
2019-04-26T21:23:48.022Z,100862.67
2019-04-26T21:26:36.559Z,100861.97
2019-04-26T21:29:20.295Z,100862.49
2019-04-26T21:32:12.440Z,100865.97
2019-04-26T21:34:46.448Z,100866.95
2019-04-26T21:37:28.086Z,100867.51
2019-04-26T21:40:16.896Z,100881.26
2019-04-26T21:42:45.320Z,100880.45
2019-04-26T21:45:15.350Z,100872.84
2019-04-26T21:47:45.003Z,100867.41
2019-04-26T21:50:16.215Z,100870.87
2019-04-26T21:52:45.849Z,100871.92
2019-04-26T21:55:16.685Z,100870.80
2019-04-26T21:57:46.464Z,100869.73
2019-04-26T22:00:36.524Z,100865.62
2019-04-26T22:03:07.872Z,100856.04
2019-04-26T22:05:37.736Z,100862.25
2019-04-26T22:08:07.467Z,100870.44
2019-04-26T22:10:44.547Z,100876.09
2019-04-26T22:13:19.228Z,100858.42
2019-04-26T22:16:30.653Z,100865.02
2019-04-26T22:19:08.724Z,100869.91
2019-04-26T22:22:05.777Z,100872.08
2019-04-26T22:24:34.421Z,100870.13
2019-04-26T22:27:04.128Z,100865.70
2019-04-26T22:29:33.680Z,100867.58
2019-04-26T22:32:03.815Z,100865.98
2019-04-26T22:34:37.305Z,100875.38
2019-04-26T22:37:11.099Z,100864.04
2019-04-26T22:39:39.735Z,100864.44
2019-04-26T22:42:08.890Z,100862.08
2019-04-26T22:44:57.347Z,100857.66
2019-04-26T22:47:40.877Z,100850.70
2019-04-26T22:50:07.101Z,100853.75
2019-04-26T22:52:36.753Z,100847.09
2019-04-26T22:55:07.145Z,100846.14
2019-04-26T22:57:37.037Z,100844.34
2019-04-26T23:00:08.534Z,100838.00
2019-04-26T23:02:38.208Z,100841.53
2019-04-26T23:05:07.939Z,100835.70
2019-04-26T23:07:37.562Z,100841.69
2019-04-26T23:10:08.457Z,100839.72
2019-04-26T23:13:04.488Z,100834.83
2019-04-26T23:15:48.407Z,100830.41
2019-04-26T23:18:38.750Z,100832.00
2019-04-26T23:21:14.955Z,100826.46
2019-04-26T23:23:44.314Z,100821.23
2019-04-26T23:26:14.417Z,100822.77
2019-04-26T23:28:44.055Z,100825.05
2019-04-26T23:31:13.620Z,100816.37
2019-04-26T23:33:43.213Z,100815.12
2019-04-26T23:36:13.605Z,100806.19
2019-04-26T23:38:43.915Z,100810.37
2019-04-26T23:41:14.192Z,100804.61
2019-04-26T23:43:43.869Z,100815.49
2019-04-26T23:46:14.689Z,100821.16
2019-04-26T23:48:48.834Z,100824.63
2019-04-26T23:51:15.968Z,100818.52
2019-04-26T23:53:45.580Z,100810.41
2019-04-26T23:56:21.694Z,100817.70
2019-04-26T23:58:46.401Z,100815.92
